createdAt,value
2019-05-22T00:01:16.661Z,15.42
2019-05-22T00:03:43.296Z,15.47
2019-05-22T00:06:09.952Z,15.44
2019-05-22T00:08:36.564Z,15.46
2019-05-22T00:11:03.213Z,15.43
2019-05-22T00:13:29.886Z,15.42
2019-05-22T00:15:56.486Z,15.46
2019-05-22T00:18:23.098Z,15.47
2019-05-22T00:20:49.734Z,15.50
2019-05-22T00:23:16.328Z,15.54
2019-05-22T00:25:42.945Z,15.53
2019-05-22T00:28:09.685Z,15.51
2019-05-22T00:30:36.420Z,15.51
2019-05-22T00:33:03.116Z,15.49
2019-05-22T00:35:31.320Z,15.48
2019-05-22T00:37:57.924Z,15.48
2019-05-22T00:40:24.513Z,15.45
2019-05-22T00:43:03.305Z,15.47
2019-05-22T00:45:20.759Z,15.44
2019-05-22T00:47:47.347Z,15.43
2019-05-22T00:50:13.950Z,15.40
2019-05-22T00:52:40.570Z,15.39
2019-05-22T00:55:07.189Z,15.38
2019-05-22T00:57:33.782Z,15.39
2019-05-22T01:00:00.423Z,15.39
2019-05-22T01:02:27.010Z,15.41
2019-05-22T01:04:53.658Z,15.40
2019-05-22T01:07:20.297Z,15.41
2019-05-22T01:09:46.883Z,15.42
2019-05-22T01:12:13.536Z,15.46
2019-05-22T01:14:42.979Z,15.43
2019-05-22T01:17:08.449Z,15.45
2019-05-22T01:19:35.063Z,15.44
2019-05-22T01:22:01.816Z,15.44
2019-05-22T01:24:28.575Z,15.40
2019-05-22T01:26:55.162Z,15.40
2019-05-22T01:29:21.799Z,15.38
2019-05-22T01:31:48.458Z,15.39
2019-05-22T01:34:15.055Z,15.43
2019-05-22T01:36:41.735Z,15.41
2019-05-22T01:39:08.359Z,15.40
2019-05-22T01:41:34.986Z,15.41
2019-05-22T01:44:01.592Z,15.42
2019-05-22T01:46:28.222Z,15.38
2019-05-22T01:48:54.924Z,15.37
2019-05-22T01:51:21.506Z,15.35
2019-05-22T01:53:48.115Z,15.35
2019-05-22T01:56:14.762Z,15.35
2019-05-22T01:58:41.386Z,15.36
2019-05-22T02:01:08.063Z,15.37
2019-05-22T02:03:34.664Z,15.38
2019-05-22T02:06:01.351Z,15.37
2019-05-22T02:08:28.181Z,15.33
2019-05-22T02:10:54.762Z,15.27
2019-05-22T02:13:21.388Z,15.22
2019-05-22T02:15:47.981Z,15.11
2019-05-22T02:18:14.633Z,15.04
2019-05-22T02:20:41.269Z,14.97
2019-05-22T02:23:07.858Z,14.94
2019-05-22T02:25:34.496Z,14.95
2019-05-22T02:28:01.164Z,14.94
2019-05-22T02:30:27.825Z,14.93
2019-05-22T02:32:54.433Z,14.91
2019-05-22T02:35:21.023Z,14.87
2019-05-22T02:37:47.651Z,14.81
2019-05-22T02:40:14.245Z,14.78
2019-05-22T02:42:40.882Z,14.76
2019-05-22T02:45:07.494Z,14.71
2019-05-22T02:47:34.155Z,14.71
2019-05-22T02:50:00.768Z,14.71
2019-05-22T02:52:27.430Z,14.71
2019-05-22T02:54:54.045Z,14.74
2019-05-22T02:57:20.635Z,14.78
2019-05-22T02:59:47.243Z,14.82
2019-05-22T03:02:13.863Z,14.84
2019-05-22T03:04:40.445Z,14.88
2019-05-22T03:07:07.066Z,14.90
2019-05-22T03:09:33.706Z,14.93
2019-05-22T03:12:00.296Z,14.96
2019-05-22T03:14:26.914Z,15.00
2019-05-22T03:16:53.577Z,15.02
2019-05-22T03:19:20.206Z,15.06
2019-05-22T03:21:46.809Z,15.07
2019-05-22T03:24:13.551Z,15.09
2019-05-22T03:26:40.156Z,15.12
2019-05-22T03:29:06.753Z,15.15
2019-05-22T03:31:33.394Z,15.20
2019-05-22T03:34:00.000Z,15.23
2019-05-22T03:36:26.713Z,15.22
2019-05-22T03:38:53.324Z,15.20
2019-05-22T03:41:19.915Z,15.18
2019-05-22T03:43:46.616Z,15.17
2019-05-22T03:46:13.213Z,15.14
2019-05-22T03:48:39.816Z,15.12
2019-05-22T03:51:06.447Z,15.09
2019-05-22T03:53:33.054Z,15.08
2019-05-22T03:55:59.668Z,15.09
2019-05-22T03:58:26.292Z,15.08
2019-05-22T04:00:53.113Z,15.08
2019-05-22T04:03:19.707Z,15.09
2019-05-22T04:05:46.310Z,15.08
2019-05-22T04:08:12.920Z,15.08
2019-05-22T04:10:41.131Z,15.11
2019-05-22T04:13:07.967Z,15.10
2019-05-22T04:15:34.645Z,15.09
2019-05-22T04:18:01.312Z,15.08
2019-05-22T04:20:28.059Z,15.09
2019-05-22T04:22:54.661Z,15.11
2019-05-22T04:25:21.244Z,15.08
2019-05-22T04:27:47.867Z,15.09
2019-05-22T04:30:14.470Z,15.10
2019-05-22T04:32:41.072Z,15.09
2019-05-22T04:35:07.775Z,15.08
2019-05-22T04:37:34.427Z,15.02
2019-05-22T04:40:01.051Z,15.00
2019-05-22T04:42:27.668Z,15.00
2019-05-22T04:44:54.291Z,14.99
2019-05-22T04:47:20.964Z,15.02
2019-05-22T04:50:05.919Z,15.04
2019-05-22T04:52:15.934Z,15.07
2019-05-22T04:54:42.571Z,15.11
2019-05-22T04:57:09.192Z,15.14
2019-05-22T04:59:35.778Z,15.19
2019-05-22T05:02:02.402Z,15.24
2019-05-22T05:04:29.065Z,15.31
2019-05-22T05:06:55.714Z,15.39
2019-05-22T05:09:22.325Z,15.49
2019-05-22T05:11:48.999Z,15.57
2019-05-22T05:14:15.599Z,15.62
2019-05-22T05:16:42.201Z,15.65
2019-05-22T05:19:08.818Z,15.64
2019-05-22T05:21:35.522Z,15.61
2019-05-22T05:24:02.186Z,15.63
2019-05-22T05:26:28.825Z,15.64
2019-05-22T05:28:55.535Z,15.62
2019-05-22T05:31:22.365Z,15.61
2019-05-22T05:33:48.977Z,15.61
2019-05-22T05:36:15.567Z,15.63
2019-05-22T05:38:42.314Z,15.65
2019-05-22T05:41:08.923Z,15.63
2019-05-22T05:43:35.635Z,15.61
2019-05-22T05:46:02.273Z,15.59
2019-05-22T05:48:28.904Z,15.59
2019-05-22T05:50:55.503Z,15.57
2019-05-22T05:53:22.105Z,15.61
2019-05-22T05:55:48.716Z,15.62
2019-05-22T05:58:15.309Z,15.61
2019-05-22T06:00:44.620Z,15.61
2019-05-22T06:03:10.281Z,15.63
2019-05-22T06:05:36.874Z,15.63
2019-05-22T06:08:03.488Z,15.62
2019-05-22T06:10:30.107Z,15.63
2019-05-22T06:12:56.788Z,15.65
2019-05-22T06:15:23.445Z,15.67
2019-05-22T06:17:50.091Z,15.71
2019-05-22T06:20:16.849Z,15.76
2019-05-22T06:22:43.465Z,15.83
2019-05-22T06:25:10.251Z,15.85
2019-05-22T06:27:36.919Z,15.88
2019-05-22T06:30:03.577Z,15.91
2019-05-22T06:32:30.288Z,15.96
2019-05-22T06:34:59.680Z,16.00
2019-05-22T06:37:25.204Z,16.02
2019-05-22T06:39:51.845Z,16.04
2019-05-22T06:42:18.442Z,16.01
2019-05-22T06:44:45.068Z,15.98
2019-05-22T06:47:11.692Z,15.95
2019-05-22T06:49:38.406Z,15.94
2019-05-22T06:52:05.033Z,15.94
2019-05-22T06:54:31.670Z,15.96
2019-05-22T06:56:58.306Z,15.97
2019-05-22T06:59:25.026Z,15.94
2019-05-22T07:01:51.658Z,15.92
2019-05-22T07:04:18.276Z,15.93
2019-05-22T07:06:44.944Z,15.95
2019-05-22T07:09:11.547Z,16.00
2019-05-22T07:11:38.170Z,16.04
2019-05-22T07:14:04.762Z,16.07
2019-05-22T07:16:31.419Z,16.15
2019-05-22T07:18:58.010Z,16.25
2019-05-22T07:21:33.557Z,16.37
2019-05-22T07:23:52.960Z,16.38
2019-05-22T07:26:19.591Z,16.36
2019-05-22T07:28:46.226Z,16.31
2019-05-22T07:31:12.908Z,16.30
2019-05-22T07:33:39.503Z,16.29
2019-05-22T07:36:10.094Z,16.30
2019-05-22T07:38:34.491Z,16.33
2019-05-22T07:41:01.130Z,16.37
2019-05-22T07:43:27.894Z,16.40
2019-05-22T07:45:54.519Z,16.42
2019-05-22T07:48:21.198Z,16.40
2019-05-22T07:50:49.158Z,16.44
2019-05-22T07:53:16.105Z,16.48
2019-05-22T07:55:42.794Z,16.53
2019-05-22T07:58:09.417Z,16.62
2019-05-22T08:00:36.015Z,16.70
2019-05-22T08:03:02.655Z,16.77
2019-05-22T08:05:29.288Z,16.84
2019-05-22T08:07:55.921Z,16.92
2019-05-22T08:10:22.567Z,16.98
2019-05-22T08:12:49.199Z,17.04
2019-05-22T08:15:15.980Z,17.11
2019-05-22T08:17:42.611Z,17.17
2019-05-22T08:20:09.305Z,17.26
2019-05-22T08:22:35.927Z,17.33
2019-05-22T08:25:02.601Z,17.42
2019-05-22T08:27:29.260Z,17.50
2019-05-22T08:29:57.006Z,17.61
2019-05-22T08:32:23.830Z,17.72
2019-05-22T08:34:50.462Z,17.82
2019-05-22T08:37:17.066Z,17.95
2019-05-22T08:39:43.746Z,18.05
2019-05-22T08:42:10.339Z,18.10
2019-05-22T08:44:36.917Z,18.14
2019-05-22T08:47:03.569Z,18.18
2019-05-22T08:49:30.157Z,18.25
2019-05-22T08:51:56.766Z,18.25
2019-05-22T08:54:23.411Z,18.21
2019-05-22T08:56:50.010Z,18.15
2019-05-22T08:59:19.949Z,18.14
2019-05-22T09:01:45.026Z,18.12
2019-05-22T09:04:11.871Z,18.09
2019-05-22T09:06:38.549Z,18.05
2019-05-22T09:09:05.128Z,17.97
2019-05-22T09:11:31.770Z,17.78
2019-05-22T09:13:58.398Z,17.57
2019-05-22T09:16:25.002Z,17.38
2019-05-22T09:18:51.746Z,17.21
2019-05-22T09:21:18.415Z,17.08
2019-05-22T09:23:45.010Z,16.99
2019-05-22T09:26:11.615Z,16.93
2019-05-22T09:28:38.214Z,16.88
2019-05-22T09:31:05.640Z,16.88
2019-05-22T09:33:32.525Z,16.87
2019-05-22T09:35:59.161Z,16.86
2019-05-22T09:38:25.804Z,16.86
2019-05-22T09:40:52.415Z,16.87
2019-05-22T09:43:19.089Z,16.87
2019-05-22T09:45:45.702Z,16.87
2019-05-22T09:48:12.293Z,16.90
2019-05-22T09:50:38.935Z,16.94
2019-05-22T09:53:05.537Z,17.04
2019-05-22T09:55:32.177Z,17.15
2019-05-22T09:57:58.774Z,17.26
2019-05-22T10:00:25.385Z,17.35
2019-05-22T10:02:52.044Z,17.49
2019-05-22T10:05:18.639Z,17.66
2019-05-22T10:07:59.083Z,17.80
2019-05-22T10:10:13.595Z,17.97
2019-05-22T10:12:40.245Z,18.16
2019-05-22T10:15:06.987Z,18.43
2019-05-22T10:17:33.637Z,18.69
2019-05-22T10:20:00.255Z,18.86
2019-05-22T10:22:26.870Z,18.98
2019-05-22T10:25:12.000Z,19.07
2019-05-22T10:27:21.826Z,19.13
2019-05-22T10:29:48.505Z,19.28
2019-05-22T10:32:15.103Z,19.43
2019-05-22T10:34:41.689Z,19.56
2019-05-22T10:37:08.829Z,19.64
2019-05-22T10:39:35.474Z,19.69
2019-05-22T10:42:02.073Z,19.73
2019-05-22T10:44:28.698Z,19.76
2019-05-22T10:46:55.387Z,19.74
2019-05-22T10:49:22.097Z,19.71
2019-05-22T10:51:48.694Z,19.67
2019-05-22T10:54:15.309Z,19.62
2019-05-22T10:56:41.921Z,19.55
2019-05-22T10:59:08.529Z,19.46
2019-05-22T11:01:37.535Z,19.41
2019-05-22T11:04:03.555Z,19.38
2019-05-22T11:06:30.156Z,19.35
2019-05-22T11:08:56.800Z,19.32
2019-05-22T11:11:23.403Z,19.25
2019-05-22T11:14:00.525Z,19.21
2019-05-22T11:16:18.339Z,19.16
2019-05-22T11:18:46.953Z,19.11
2019-05-22T11:21:13.368Z,19.08
2019-05-22T11:23:51.472Z,19.05
2019-05-22T11:26:08.286Z,19.03
2019-05-22T11:28:34.928Z,19.04
2019-05-22T11:31:01.610Z,19.05
2019-05-22T11:33:29.461Z,19.09
2019-05-22T11:35:56.147Z,19.15
2019-05-22T11:38:22.771Z,19.28
2019-05-22T11:40:49.401Z,19.43
2019-05-22T11:43:16.017Z,19.63
2019-05-22T11:45:45.217Z,19.90
2019-05-22T11:48:10.970Z,20.19
2019-05-22T11:50:37.580Z,20.48
2019-05-22T11:53:04.300Z,20.84
2019-05-22T11:55:44.424Z,21.17
2019-05-22T11:57:59.512Z,21.47
2019-05-22T12:00:26.134Z,21.68
2019-05-22T12:02:52.795Z,21.86
2019-05-22T12:05:19.411Z,22.00
2019-05-22T12:07:46.027Z,22.14
2019-05-22T12:10:12.618Z,22.22
2019-05-22T12:12:39.352Z,22.20
2019-05-22T12:15:06.556Z,22.18
2019-05-22T12:17:38.072Z,22.17
2019-05-22T12:20:01.578Z,22.16
2019-05-22T12:22:28.171Z,22.15
2019-05-22T12:24:54.782Z,22.13
2019-05-22T12:27:21.390Z,22.06
2019-05-22T12:29:47.978Z,22.02
2019-05-22T12:32:14.710Z,21.97
2019-05-22T12:34:41.312Z,21.95
2019-05-22T12:37:07.986Z,21.95
2019-05-22T12:39:34.561Z,21.90
2019-05-22T12:42:01.146Z,21.79
2019-05-22T12:44:27.806Z,21.64
2019-05-22T12:46:54.420Z,21.49
2019-05-22T12:49:21.072Z,21.34
2019-05-22T12:51:47.746Z,21.21
2019-05-22T12:54:14.395Z,21.01
2019-05-22T12:56:41.026Z,20.84
2019-05-22T12:59:07.688Z,20.68
2019-05-22T13:01:34.286Z,20.54
2019-05-22T13:04:00.912Z,20.41
2019-05-22T13:06:27.546Z,20.28
2019-05-22T13:08:54.141Z,20.13
2019-05-22T13:11:20.755Z,19.96
2019-05-22T13:13:47.528Z,19.80
2019-05-22T13:16:14.167Z,19.63
2019-05-22T13:18:40.771Z,19.50
2019-05-22T13:21:07.365Z,19.41
2019-05-22T13:23:33.999Z,19.32
2019-05-22T13:26:00.731Z,19.23
2019-05-22T13:28:27.340Z,19.20
2019-05-22T13:30:53.973Z,19.21
2019-05-22T13:33:20.564Z,19.24
2019-05-22T13:35:47.327Z,19.31
2019-05-22T13:38:14.157Z,19.37
2019-05-22T13:40:40.848Z,19.43
2019-05-22T13:43:07.624Z,19.50
2019-05-22T13:45:36.249Z,19.58
2019-05-22T13:48:02.739Z,19.67
2019-05-22T13:50:29.528Z,19.73
2019-05-22T13:52:56.386Z,19.81
2019-05-22T13:55:23.071Z,19.84
2019-05-22T13:57:49.747Z,19.86
2019-05-22T14:00:16.444Z,19.88
2019-05-22T14:02:43.161Z,19.90
2019-05-22T14:05:13.578Z,19.92
2019-05-22T14:07:38.420Z,19.92
2019-05-22T14:10:05.139Z,19.94
2019-05-22T14:12:31.883Z,19.94
2019-05-22T14:14:58.579Z,19.92
2019-05-22T14:17:25.378Z,19.92
2019-05-22T14:19:52.216Z,19.90
2019-05-22T14:22:18.901Z,19.88
2019-05-22T14:24:45.787Z,19.85
2019-05-22T14:27:12.524Z,19.84
2019-05-22T14:29:39.166Z,19.77
2019-05-22T14:32:06.731Z,19.68
2019-05-22T14:34:33.423Z,19.58
2019-05-22T14:37:00.104Z,19.54
2019-05-22T14:39:26.859Z,19.52
2019-05-22T14:41:53.586Z,19.52
2019-05-22T14:44:20.320Z,19.53
2019-05-22T14:46:47.069Z,19.53
2019-05-22T14:49:13.808Z,19.52
2019-05-22T14:51:40.654Z,19.48
2019-05-22T14:54:09.264Z,19.45
2019-05-22T14:56:38.416Z,19.43
2019-05-22T14:59:05.173Z,19.40
2019-05-22T15:01:31.917Z,19.37
2019-05-22T15:03:59.901Z,19.35
2019-05-22T15:06:30.319Z,19.31
2019-05-22T15:08:57.335Z,19.28
2019-05-22T15:11:24.222Z,19.23
2019-05-22T15:13:51.512Z,19.21
2019-05-22T15:16:18.513Z,19.17
2019-05-22T15:18:45.355Z,19.11
2019-05-22T15:21:12.204Z,18.99
2019-05-22T15:23:39.963Z,18.87
2019-05-22T15:26:07.930Z,18.72
2019-05-22T15:28:35.184Z,18.59
2019-05-22T15:31:02.028Z,18.45
2019-05-22T15:33:29.386Z,18.33
2019-05-22T15:35:57.351Z,18.22
2019-05-22T15:38:25.212Z,18.16
2019-05-22T15:40:51.961Z,18.08
2019-05-22T15:43:21.064Z,18.05
2019-05-22T15:45:48.211Z,17.99
2019-05-22T15:48:15.661Z,17.94
2019-05-22T15:50:42.497Z,17.88
2019-05-22T15:53:12.609Z,17.81
2019-05-22T15:55:38.799Z,17.78
2019-05-22T15:58:07.124Z,17.73
2019-05-22T16:00:35.570Z,17.68
2019-05-22T16:03:04.888Z,17.62
2019-05-22T16:05:31.655Z,17.58
2019-05-22T16:07:58.501Z,17.53
2019-05-22T16:10:25.338Z,17.50
2019-05-22T16:12:59.999Z,17.47
2019-05-22T16:15:26.798Z,17.43
2019-05-22T16:18:10.385Z,17.39
2019-05-22T16:20:22.633Z,17.36
2019-05-22T16:25:38.202Z,17.37
2019-05-22T16:28:05.834Z,17.39
2019-05-22T16:30:34.274Z,17.40
2019-05-22T16:33:01.023Z,17.41
2019-05-22T16:35:28.089Z,17.45
2019-05-22T16:37:55.067Z,17.46
2019-05-22T16:40:21.853Z,17.46
2019-05-22T16:42:50.611Z,17.46
2019-05-22T16:45:17.480Z,17.44
2019-05-22T16:47:44.219Z,17.41
2019-05-22T16:50:11.676Z,17.40
2019-05-22T16:52:38.520Z,17.41
2019-05-22T16:55:05.348Z,17.45
2019-05-22T16:57:32.094Z,17.48
2019-05-22T16:59:58.956Z,17.49
2019-05-22T17:02:26.188Z,17.51
2019-05-22T17:04:53.956Z,17.51
2019-05-22T17:07:20.792Z,17.47
2019-05-22T17:09:47.649Z,17.46
2019-05-22T17:12:14.512Z,17.46
2019-05-22T17:14:41.216Z,17.45
2019-05-22T17:17:08.470Z,17.43
2019-05-22T17:19:35.314Z,17.40
2019-05-22T17:22:02.053Z,17.34
2019-05-22T17:24:28.915Z,17.32
2019-05-22T17:26:55.742Z,17.26
2019-05-22T17:29:22.607Z,17.24
2019-05-22T17:31:49.533Z,17.22
2019-05-22T17:34:16.481Z,17.17
2019-05-22T17:36:43.309Z,17.10
2019-05-22T17:39:10.153Z,17.05
2019-05-22T17:41:37.357Z,17.00
2019-05-22T17:44:04.610Z,16.94
2019-05-22T17:46:31.351Z,16.87
2019-05-22T17:48:58.136Z,16.81
2019-05-22T17:51:26.942Z,16.76
2019-05-22T17:53:53.744Z,16.70
2019-05-22T17:56:20.632Z,16.67
2019-05-22T17:58:47.621Z,16.63
2019-05-22T18:01:14.538Z,16.63
2019-05-22T18:03:42.043Z,16.63
2019-05-22T18:06:08.989Z,16.64
2019-05-22T18:08:37.246Z,16.66
2019-05-22T18:11:05.865Z,16.69
2019-05-22T18:13:32.622Z,16.72
2019-05-22T18:15:59.470Z,16.76
2019-05-22T18:18:26.292Z,16.77
2019-05-22T18:20:53.077Z,16.79
2019-05-22T18:23:19.880Z,16.79
2019-05-22T18:25:46.728Z,16.78
2019-05-22T18:28:15.972Z,16.73
2019-05-22T18:30:43.996Z,16.66
2019-05-22T18:33:10.767Z,16.63
2019-05-22T18:35:37.672Z,16.61
2019-05-22T18:38:05.119Z,16.61
2019-05-22T18:40:32.100Z,16.61
2019-05-22T18:42:58.854Z,16.61
2019-05-22T18:45:25.666Z,16.63
2019-05-22T18:47:53.048Z,16.62
2019-05-22T18:50:19.867Z,16.61
2019-05-22T18:52:46.656Z,16.62
2019-05-22T18:55:13.449Z,16.65
2019-05-22T18:57:40.304Z,16.64
2019-05-22T19:00:07.057Z,16.61
2019-05-22T19:02:33.966Z,16.58
2019-05-22T19:05:00.818Z,16.54
2019-05-22T19:07:27.668Z,16.53
2019-05-22T19:09:54.612Z,16.50
2019-05-22T19:12:21.449Z,16.46
2019-05-22T19:14:48.288Z,16.42
2019-05-22T19:17:15.065Z,16.40
2019-05-22T19:19:41.877Z,16.38
2019-05-22T19:22:08.915Z,16.37
2019-05-22T19:24:35.661Z,16.34
2019-05-22T19:27:02.413Z,16.33
2019-05-22T19:29:29.257Z,16.31
2019-05-22T19:31:57.704Z,16.29
2019-05-22T19:34:24.568Z,16.28
2019-05-22T19:36:51.488Z,16.29
2019-05-22T19:39:18.349Z,16.26
2019-05-22T19:41:59.869Z,16.26
2019-05-22T19:44:14.294Z,16.21
2019-05-22T19:46:41.076Z,16.16
2019-05-22T19:49:07.877Z,16.14
2019-05-22T19:51:34.735Z,16.14
2019-05-22T19:54:03.710Z,16.14
2019-05-22T19:56:30.542Z,16.12
2019-05-22T19:58:57.820Z,16.14
2019-05-22T20:01:24.538Z,16.16
2019-05-22T20:03:51.274Z,16.17
2019-05-22T20:06:18.130Z,16.19
2019-05-22T20:08:44.969Z,16.20
2019-05-22T20:11:11.705Z,16.22
2019-05-22T20:13:38.560Z,16.24
2019-05-22T20:16:06.758Z,16.25
2019-05-22T20:18:33.463Z,16.22
2019-05-22T20:21:00.197Z,16.23
2019-05-22T20:23:36.305Z,16.25
2019-05-22T20:25:57.746Z,16.24
2019-05-22T20:28:24.619Z,16.22
2019-05-22T20:30:51.607Z,16.18
2019-05-22T20:33:18.406Z,16.16
2019-05-22T20:35:45.265Z,16.12
2019-05-22T20:38:12.092Z,16.10
2019-05-22T20:40:41.922Z,16.10
2019-05-22T20:43:08.436Z,16.10
2019-05-22T20:45:35.296Z,16.09
2019-05-22T20:48:02.126Z,16.10
2019-05-22T20:50:28.972Z,16.08
2019-05-22T20:52:55.812Z,16.08
2019-05-22T20:55:22.665Z,16.06
2019-05-22T20:57:49.501Z,16.04
2019-05-22T21:00:16.311Z,16.05
2019-05-22T21:02:43.077Z,16.05
2019-05-22T21:05:12.404Z,16.02
2019-05-22T21:07:39.114Z,16.01
2019-05-22T21:10:06.267Z,15.97
2019-05-22T21:12:35.658Z,15.96
2019-05-22T21:15:01.996Z,15.94
2019-05-22T21:17:28.850Z,15.92
2019-05-22T21:19:55.617Z,15.93
2019-05-22T21:22:22.439Z,15.96
2019-05-22T21:24:49.270Z,15.98
2019-05-22T21:27:16.009Z,16.01
2019-05-22T21:29:42.748Z,16.05
2019-05-22T21:32:09.487Z,16.05
2019-05-22T21:34:36.226Z,16.06
2019-05-22T21:37:03.118Z,16.09
2019-05-22T21:39:30.218Z,16.12
2019-05-22T21:41:57.087Z,16.11
2019-05-22T21:44:23.904Z,16.11
2019-05-22T21:46:50.651Z,16.11
2019-05-22T21:49:17.505Z,16.11
2019-05-22T21:51:44.249Z,16.14
2019-05-22T21:54:11.071Z,16.17
2019-05-22T21:56:37.909Z,16.18
2019-05-22T21:59:04.665Z,16.18
2019-05-22T22:01:31.415Z,16.20
2019-05-22T22:03:58.339Z,16.22
2019-05-22T22:06:25.140Z,16.24
2019-05-22T22:08:51.919Z,16.26
2019-05-22T22:11:18.679Z,16.27
2019-05-22T22:13:45.404Z,16.28
2019-05-22T22:16:12.177Z,16.27
2019-05-22T22:18:38.985Z,16.24
2019-05-22T22:21:05.821Z,16.26
2019-05-22T22:23:32.543Z,16.27
2019-05-22T22:25:59.296Z,16.27
2019-05-22T22:28:26.050Z,16.27
2019-05-22T22:30:52.898Z,16.28
2019-05-22T22:33:19.721Z,16.30
2019-05-22T22:35:46.478Z,16.32
2019-05-22T22:38:13.207Z,16.35
2019-05-22T22:40:40.063Z,16.39
2019-05-22T22:43:06.898Z,16.40
2019-05-22T22:45:33.625Z,16.43
2019-05-22T22:48:00.379Z,16.46
2019-05-22T22:50:27.161Z,16.48
2019-05-22T22:52:54.041Z,16.51
2019-05-22T22:55:20.805Z,16.54
2019-05-22T22:57:47.532Z,16.57
2019-05-22T23:00:14.277Z,16.58
2019-05-22T23:02:41.041Z,16.62
2019-05-22T23:05:07.865Z,16.63
2019-05-22T23:07:34.721Z,16.65
2019-05-22T23:10:01.552Z,16.66
2019-05-22T23:12:28.402Z,16.68
2019-05-22T23:14:56.051Z,16.69
2019-05-22T23:17:22.785Z,16.72
2019-05-22T23:19:49.441Z,16.73
2019-05-22T23:22:16.285Z,16.74
2019-05-22T23:24:43.143Z,16.75
2019-05-22T23:27:09.966Z,16.77
2019-05-22T23:29:36.812Z,16.77
2019-05-22T23:32:03.667Z,16.78
2019-05-22T23:34:30.483Z,16.80
2019-05-22T23:36:57.143Z,16.81
2019-05-22T23:39:23.975Z,16.81
2019-05-22T23:41:50.821Z,16.82
2019-05-22T23:44:17.536Z,16.82
2019-05-22T23:46:44.509Z,16.83
2019-05-22T23:49:11.348Z,16.83
2019-05-22T23:51:38.067Z,16.84
2019-05-22T23:54:04.830Z,16.86
2019-05-22T23:56:31.670Z,16.87
2019-05-22T23:58:58.501Z,16.87
